sensor_id;sensor_type;location;lat;lon;timestamp;P1;durP1;ratioP1;P2;durP2;ratioP2
19388;SDS011;9830;41.876;23.474;2022-10-18T00:01:33;0.90;;;0.47;;
19388;SDS011;9830;41.876;23.474;2022-10-18T00:03:59;0.33;;;0.20;;
19388;SDS011;9830;41.876;23.474;2022-10-18T00:06:24;0.27;;;0.27;;
19388;SDS011;9830;41.876;23.474;2022-10-18T00:08:50;0.50;;;0.50;;
19388;SDS011;9830;41.876;23.474;2022-10-18T00:11:16;0.00;;;0.00;;
19388;SDS011;9830;41.876;23.474;2022-10-18T00:13:41;0.47;;;0.47;;
19388;SDS011;9830;41.876;23.474;2022-10-18T00:16:10;0.73;;;0.73;;
19388;SDS011;9830;41.876;23.474;2022-10-18T00:18:37;0.03;;;0.03;;
19388;SDS011;9830;41.876;23.474;2022-10-18T00:21:07;0.30;;;0.30;;
19388;SDS011;9830;41.876;23.474;2022-10-18T00:23:38;8.63;;;2.43;;
19388;SDS011;9830;41.876;23.474;2022-10-18T00:26:12;2.97;;;0.30;;
19388;SDS011;9830;41.876;23.474;2022-10-18T00:28:39;0.53;;;0.43;;
19388;SDS011;9830;41.876;23.474;2022-10-18T00:33:57;0.20;;;0.20;;
19388;SDS011;9830;41.876;23.474;2022-10-18T00:36:25;0.33;;;0.33;;
19388;SDS011;9830;41.876;23.474;2022-10-18T00:38:52;2.20;;;0.67;;
19388;SDS011;9830;41.876;23.474;2022-10-18T00:41:20;1.50;;;0.60;;
19388;SDS011;9830;41.876;23.474;2022-10-18T00:44:00;0.60;;;0.60;;
19388;SDS011;9830;41.876;23.474;2022-10-18T00:46:36;0.33;;;0.33;;
19388;SDS011;9830;41.876;23.474;2022-10-18T00:49:06;1.40;;;1.17;;
19388;SDS011;9830;41.876;23.474;2022-10-18T00:51:40;0.67;;;0.67;;
19388;SDS011;9830;41.876;23.474;2022-10-18T00:54:10;0.50;;;0.40;;
19388;SDS011;9830;41.876;23.474;2022-10-18T00:56:37;0.20;;;0.20;;
19388;SDS011;9830;41.876;23.474;2022-10-18T00:59:03;0.60;;;0.60;;
19388;SDS011;9830;41.876;23.474;2022-10-18T01:01:31;0.20;;;0.20;;
19388;SDS011;9830;41.876;23.474;2022-10-18T01:03:56;0.03;;;0.03;;
19388;SDS011;9830;41.876;23.474;2022-10-18T01:06:22;0.53;;;0.53;;
19388;SDS011;9830;41.876;23.474;2022-10-18T01:08:52;1.27;;;1.23;;
19388;SDS011;9830;41.876;23.474;2022-10-18T01:15:09;0.20;;;0.20;;
19388;SDS011;9830;41.876;23.474;2022-10-18T01:17:17;1.53;;;0.50;;
19388;SDS011;9830;41.876;23.474;2022-10-18T01:28:53;2.43;;;1.33;;
19388;SDS011;9830;41.876;23.474;2022-10-18T01:31:30;0.10;;;0.10;;
19388;SDS011;9830;41.876;23.474;2022-10-18T01:34:01;0.53;;;0.53;;
19388;SDS011;9830;41.876;23.474;2022-10-18T01:36:33;0.40;;;0.30;;
19388;SDS011;9830;41.876;23.474;2022-10-18T01:39:06;0.23;;;0.23;;
19388;SDS011;9830;41.876;23.474;2022-10-18T01:41:34;0.70;;;0.27;;
19388;SDS011;9830;41.876;23.474;2022-10-18T01:44:04;0.00;;;0.00;;
19388;SDS011;9830;41.876;23.474;2022-10-18T01:46:33;0.00;;;0.00;;
19388;SDS011;9830;41.876;23.474;2022-10-18T01:49:00;0.07;;;0.07;;
19388;SDS011;9830;41.876;23.474;2022-10-18T01:51:27;1.60;;;0.87;;
19388;SDS011;9830;41.876;23.474;2022-10-18T01:53:55;0.17;;;0.17;;
19388;SDS011;9830;41.876;23.474;2022-10-18T02:01:46;0.43;;;0.43;;
19388;SDS011;9830;41.876;23.474;2022-10-18T02:09:57;0.60;;;0.43;;
19388;SDS011;9830;41.876;23.474;2022-10-18T02:12:42;0.30;;;0.30;;
19388;SDS011;9830;41.876;23.474;2022-10-18T02:15:11;4.90;;;0.43;;
19388;SDS011;9830;41.876;23.474;2022-10-18T02:17:40;0.33;;;0.33;;
19388;SDS011;9830;41.876;23.474;2022-10-18T02:20:08;0.43;;;0.33;;
19388;SDS011;9830;41.876;23.474;2022-10-18T02:22:35;0.90;;;0.67;;
19388;SDS011;9830;41.876;23.474;2022-10-18T02:25:04;0.30;;;0.30;;
19388;SDS011;9830;41.876;23.474;2022-10-18T02:27:34;0.63;;;0.63;;
19388;SDS011;9830;41.876;23.474;2022-10-18T02:30:01;0.00;;;0.00;;
19388;SDS011;9830;41.876;23.474;2022-10-18T02:32:32;0.33;;;0.13;;
19388;SDS011;9830;41.876;23.474;2022-10-18T02:37:57;0.00;;;0.00;;
19388;SDS011;9830;41.876;23.474;2022-10-18T02:40:23;0.30;;;0.30;;
19388;SDS011;9830;41.876;23.474;2022-10-18T02:42:53;0.47;;;0.47;;
19388;SDS011;9830;41.876;23.474;2022-10-18T02:45:20;0.40;;;0.40;;
19388;SDS011;9830;41.876;23.474;2022-10-18T02:47:47;0.83;;;0.83;;
19388;SDS011;9830;41.876;23.474;2022-10-18T02:50:13;0.20;;;0.20;;
19388;SDS011;9830;41.876;23.474;2022-10-18T02:52:39;0.00;;;0.00;;
19388;SDS011;9830;41.876;23.474;2022-10-18T02:55:05;0.30;;;0.30;;
19388;SDS011;9830;41.876;23.474;2022-10-18T02:57:32;0.13;;;0.13;;
19388;SDS011;9830;41.876;23.474;2022-10-18T02:59:57;0.40;;;0.30;;
19388;SDS011;9830;41.876;23.474;2022-10-18T03:02:23;0.57;;;0.40;;
19388;SDS011;9830;41.876;23.474;2022-10-18T03:04:49;0.40;;;0.40;;
19388;SDS011;9830;41.876;23.474;2022-10-18T03:07:15;0.30;;;0.20;;
19388;SDS011;9830;41.876;23.474;2022-10-18T03:09:40;0.00;;;0.00;;
19388;SDS011;9830;41.876;23.474;2022-10-18T03:12:06;0.27;;;0.17;;
19388;SDS011;9830;41.876;23.474;2022-10-18T03:14:33;0.90;;;0.83;;
19388;SDS011;9830;41.876;23.474;2022-10-18T03:16:58;0.07;;;0.07;;
19388;SDS011;9830;41.876;23.474;2022-10-18T03:19:24;0.00;;;0.00;;
19388;SDS011;9830;41.876;23.474;2022-10-18T03:21:50;1.10;;;1.03;;
19388;SDS011;9830;41.876;23.474;2022-10-18T03:24:15;0.00;;;0.00;;
19388;SDS011;9830;41.876;23.474;2022-10-18T03:26:41;0.00;;;0.00;;
19388;SDS011;9830;41.876;23.474;2022-10-18T03:29:08;0.10;;;0.10;;
19388;SDS011;9830;41.876;23.474;2022-10-18T03:31:34;0.00;;;0.00;;
19388;SDS011;9830;41.876;23.474;2022-10-18T03:34:00;0.87;;;0.87;;
19388;SDS011;9830;41.876;23.474;2022-10-18T03:36:25;1.93;;;0.93;;
19388;SDS011;9830;41.876;23.474;2022-10-18T03:38:51;0.33;;;0.33;;
19388;SDS011;9830;41.876;23.474;2022-10-18T03:41:17;0.20;;;0.20;;
19388;SDS011;9830;41.876;23.474;2022-10-18T03:43:44;0.00;;;0.00;;
19388;SDS011;9830;41.876;23.474;2022-10-18T03:46:10;0.00;;;0.00;;
19388;SDS011;9830;41.876;23.474;2022-10-18T03:48:36;12.73;;;0.60;;
19388;SDS011;9830;41.876;23.474;2022-10-18T03:51:01;0.63;;;0.63;;
19388;SDS011;9830;41.876;23.474;2022-10-18T03:53:27;0.10;;;0.10;;
19388;SDS011;9830;41.876;23.474;2022-10-18T03:55:53;3.40;;;1.13;;
19388;SDS011;9830;41.876;23.474;2022-10-18T03:58:20;0.40;;;0.40;;
19388;SDS011;9830;41.876;23.474;2022-10-18T04:00:50;9.23;;;2.57;;
19388;SDS011;9830;41.876;23.474;2022-10-18T04:03:17;0.53;;;0.53;;
19388;SDS011;9830;41.876;23.474;2022-10-18T04:05:43;3.73;;;1.40;;
19388;SDS011;9830;41.876;23.474;2022-10-18T04:08:10;0.23;;;0.23;;
19388;SDS011;9830;41.876;23.474;2022-10-18T04:10:36;0.00;;;0.00;;
19388;SDS011;9830;41.876;23.474;2022-10-18T04:13:03;0.00;;;0.00;;
19388;SDS011;9830;41.876;23.474;2022-10-18T04:15:29;0.93;;;0.43;;
19388;SDS011;9830;41.876;23.474;2022-10-18T04:17:54;0.00;;;0.00;;
19388;SDS011;9830;41.876;23.474;2022-10-18T04:20:21;2.33;;;0.90;;
19388;SDS011;9830;41.876;23.474;2022-10-18T04:22:47;0.63;;;0.63;;
19388;SDS011;9830;41.876;23.474;2022-10-18T04:25:14;0.00;;;0.00;;
19388;SDS011;9830;41.876;23.474;2022-10-18T04:27:40;0.50;;;0.50;;
19388;SDS011;9830;41.876;23.474;2022-10-18T04:30:05;0.30;;;0.30;;
19388;SDS011;9830;41.876;23.474;2022-10-18T04:32:32;0.30;;;0.30;;
19388;SDS011;9830;41.876;23.474;2022-10-18T04:34:59;1.63;;;1.17;;
19388;SDS011;9830;41.876;23.474;2022-10-18T04:37:25;1.50;;;0.37;;
19388;SDS011;9830;41.876;23.474;2022-10-18T04:39:50;0.07;;;0.07;;
19388;SDS011;9830;41.876;23.474;2022-10-18T04:42:16;0.70;;;0.70;;
19388;SDS011;9830;41.876;23.474;2022-10-18T04:44:42;1.43;;;1.33;;
19388;SDS011;9830;41.876;23.474;2022-10-18T04:47:07;1.10;;;1.10;;
19388;SDS011;9830;41.876;23.474;2022-10-18T04:49:33;0.73;;;0.73;;
19388;SDS011;9830;41.876;23.474;2022-10-18T04:51:59;0.87;;;0.77;;
19388;SDS011;9830;41.876;23.474;2022-10-18T04:54:24;0.13;;;0.13;;
19388;SDS011;9830;41.876;23.474;2022-10-18T04:56:50;0.97;;;0.97;;
19388;SDS011;9830;41.876;23.474;2022-10-18T04:59:16;0.13;;;0.13;;
19388;SDS011;9830;41.876;23.474;2022-10-18T05:01:42;0.00;;;0.00;;
19388;SDS011;9830;41.876;23.474;2022-10-18T05:04:07;0.93;;;0.87;;
19388;SDS011;9830;41.876;23.474;2022-10-18T05:06:33;0.47;;;0.47;;
19388;SDS011;9830;41.876;23.474;2022-10-18T05:08:59;0.13;;;0.13;;
19388;SDS011;9830;41.876;23.474;2022-10-18T05:11:24;0.03;;;0.03;;
19388;SDS011;9830;41.876;23.474;2022-10-18T05:13:50;0.30;;;0.30;;
19388;SDS011;9830;41.876;23.474;2022-10-18T05:16:16;0.27;;;0.27;;
19388;SDS011;9830;41.876;23.474;2022-10-18T05:18:42;0.70;;;0.70;;
19388;SDS011;9830;41.876;23.474;2022-10-18T05:21:08;2.23;;;1.90;;
19388;SDS011;9830;41.876;23.474;2022-10-18T05:23:34;1.20;;;1.10;;
19388;SDS011;9830;41.876;23.474;2022-10-18T05:26:01;2.27;;;1.70;;
19388;SDS011;9830;41.876;23.474;2022-10-18T05:28:27;1.53;;;0.80;;
19388;SDS011;9830;41.876;23.474;2022-10-18T05:30:53;1.97;;;1.77;;
19388;SDS011;9830;41.876;23.474;2022-10-18T05:33:19;1.63;;;1.53;;
19388;SDS011;9830;41.876;23.474;2022-10-18T05:35:44;1.67;;;0.90;;
19388;SDS011;9830;41.876;23.474;2022-10-18T05:38:10;1.00;;;1.00;;
19388;SDS011;9830;41.876;23.474;2022-10-18T05:40:38;14.17;;;7.17;;
19388;SDS011;9830;41.876;23.474;2022-10-18T05:43:04;10.33;;;5.33;;
19388;SDS011;9830;41.876;23.474;2022-10-18T05:45:30;14.83;;;4.50;;
19388;SDS011;9830;41.876;23.474;2022-10-18T05:47:55;3.53;;;3.23;;
19388;SDS011;9830;41.876;23.474;2022-10-18T05:50:21;4.37;;;1.87;;
19388;SDS011;9830;41.876;23.474;2022-10-18T05:52:47;4.40;;;1.97;;
19388;SDS011;9830;41.876;23.474;2022-10-18T05:55:12;2.37;;;2.03;;
19388;SDS011;9830;41.876;23.474;2022-10-18T05:57:38;4.00;;;1.47;;
19388;SDS011;9830;41.876;23.474;2022-10-18T06:00:04;1.80;;;1.70;;
19388;SDS011;9830;41.876;23.474;2022-10-18T06:02:30;4.23;;;2.23;;
19388;SDS011;9830;41.876;23.474;2022-10-18T06:04:56;2.37;;;2.17;;
19388;SDS011;9830;41.876;23.474;2022-10-18T06:07:21;5.53;;;3.23;;
19388;SDS011;9830;41.876;23.474;2022-10-18T06:09:47;2.33;;;2.13;;
19388;SDS011;9830;41.876;23.474;2022-10-18T06:12:13;2.57;;;2.33;;
19388;SDS011;9830;41.876;23.474;2022-10-18T06:14:38;3.27;;;2.97;;
19388;SDS011;9830;41.876;23.474;2022-10-18T06:17:04;2.97;;;2.73;;
19388;SDS011;9830;41.876;23.474;2022-10-18T06:19:30;2.87;;;2.67;;
19388;SDS011;9830;41.876;23.474;2022-10-18T06:21:55;2.67;;;2.47;;
19388;SDS011;9830;41.876;23.474;2022-10-18T06:24:21;6.87;;;3.07;;
19388;SDS011;9830;41.876;23.474;2022-10-18T06:26:47;2.30;;;1.50;;
19388;SDS011;9830;41.876;23.474;2022-10-18T06:29:13;2.40;;;2.20;;
19388;SDS011;9830;41.876;23.474;2022-10-18T06:31:39;3.03;;;2.83;;
19388;SDS011;9830;41.876;23.474;2022-10-18T06:34:04;2.07;;;1.87;;
19388;SDS011;9830;41.876;23.474;2022-10-18T06:36:30;3.77;;;2.87;;
19388;SDS011;9830;41.876;23.474;2022-10-18T06:38:56;1.47;;;1.37;;
19388;SDS011;9830;41.876;23.474;2022-10-18T06:41:23;1.87;;;1.77;;
19388;SDS011;9830;41.876;23.474;2022-10-18T06:43:50;1.73;;;1.47;;
19388;SDS011;9830;41.876;23.474;2022-10-18T06:46:18;1.80;;;1.53;;
19388;SDS011;9830;41.876;23.474;2022-10-18T06:48:44;13.63;;;2.43;;
19388;SDS011;9830;41.876;23.474;2022-10-18T06:51:10;4.70;;;4.13;;
19388;SDS011;9830;41.876;23.474;2022-10-18T06:53:37;4.80;;;4.40;;
19388;SDS011;9830;41.876;23.474;2022-10-18T06:56:07;7.47;;;3.53;;
19388;SDS011;9830;41.876;23.474;2022-10-18T06:58:37;4.53;;;3.33;;
19388;SDS011;9830;41.876;23.474;2022-10-18T07:01:06;4.60;;;3.60;;
19388;SDS011;9830;41.876;23.474;2022-10-18T07:03:35;3.13;;;2.93;;
19388;SDS011;9830;41.876;23.474;2022-10-18T07:06:02;4.97;;;3.83;;
19388;SDS011;9830;41.876;23.474;2022-10-18T07:08:29;6.33;;;4.30;;
19388;SDS011;9830;41.876;23.474;2022-10-18T07:10:56;4.23;;;3.83;;
19388;SDS011;9830;41.876;23.474;2022-10-18T07:13:22;6.57;;;4.93;;
19388;SDS011;9830;41.876;23.474;2022-10-18T07:15:58;5.33;;;4.73;;
19388;SDS011;9830;41.876;23.474;2022-10-18T07:18:29;13.93;;;6.30;;
19388;SDS011;9830;41.876;23.474;2022-10-18T07:20:56;6.20;;;5.20;;
19388;SDS011;9830;41.876;23.474;2022-10-18T07:23:24;5.80;;;5.17;;
19388;SDS011;9830;41.876;23.474;2022-10-18T07:25:50;10.87;;;4.27;;
19388;SDS011;9830;41.876;23.474;2022-10-18T07:28:16;11.43;;;4.20;;
19388;SDS011;9830;41.876;23.474;2022-10-18T07:30:42;8.93;;;5.07;;
19388;SDS011;9830;41.876;23.474;2022-10-18T07:33:07;3.30;;;3.10;;
19388;SDS011;9830;41.876;23.474;2022-10-18T07:35:33;2.27;;;2.17;;
19388;SDS011;9830;41.876;23.474;2022-10-18T07:37:58;4.73;;;2.93;;
19388;SDS011;9830;41.876;23.474;2022-10-18T07:40:24;4.17;;;2.17;;
19388;SDS011;9830;41.876;23.474;2022-10-18T07:42:50;2.53;;;2.20;;
19388;SDS011;9830;41.876;23.474;2022-10-18T07:45:15;1.87;;;1.60;;
19388;SDS011;9830;41.876;23.474;2022-10-18T07:47:41;0.93;;;0.93;;
19388;SDS011;9830;41.876;23.474;2022-10-18T07:50:07;1.40;;;1.30;;
19388;SDS011;9830;41.876;23.474;2022-10-18T07:52:33;1.13;;;1.13;;
19388;SDS011;9830;41.876;23.474;2022-10-18T07:54:58;4.35;;;1.50;;
19388;SDS011;9830;41.876;23.474;2022-10-18T07:57:24;2.85;;;1.83;;
19388;SDS011;9830;41.876;23.474;2022-10-18T07:59:50;2.17;;;1.98;;
19388;SDS011;9830;41.876;23.474;2022-10-18T08:02:20;2.35;;;2.10;;
19388;SDS011;9830;41.876;23.474;2022-10-18T08:04:47;2.25;;;2.13;;
19388;SDS011;9830;41.876;23.474;2022-10-18T08:07:13;3.60;;;2.33;;
19388;SDS011;9830;41.876;23.474;2022-10-18T08:09:38;2.40;;;2.20;;
19388;SDS011;9830;41.876;23.474;2022-10-18T08:12:04;1.20;;;1.20;;
19388;SDS011;9830;41.876;23.474;2022-10-18T08:14:30;1.63;;;1.52;;
19388;SDS011;9830;41.876;23.474;2022-10-18T08:16:55;1.75;;;1.65;;
19388;SDS011;9830;41.876;23.474;2022-10-18T08:19:21;3.00;;;1.77;;
19388;SDS011;9830;41.876;23.474;2022-10-18T08:21:47;1.15;;;1.15;;
19388;SDS011;9830;41.876;23.474;2022-10-18T08:24:12;0.90;;;0.90;;
19388;SDS011;9830;41.876;23.474;2022-10-18T08:26:38;1.42;;;1.33;;
19388;SDS011;9830;41.876;23.474;2022-10-18T08:29:04;0.68;;;0.68;;
19388;SDS011;9830;41.876;23.474;2022-10-18T08:31:29;4.20;;;2.05;;
19388;SDS011;9830;41.876;23.474;2022-10-18T08:33:55;2.57;;;1.80;;
19388;SDS011;9830;41.876;23.474;2022-10-18T08:36:21;5.60;;;2.15;;
19388;SDS011;9830;41.876;23.474;2022-10-18T08:38:48;2.27;;;2.17;;
19388;SDS011;9830;41.876;23.474;2022-10-18T08:43:43;1.70;;;1.52;;
19388;SDS011;9830;41.876;23.474;2022-10-18T08:46:19;0.95;;;0.95;;
19388;SDS011;9830;41.876;23.474;2022-10-18T08:48:49;1.50;;;1.40;;
19388;SDS011;9830;41.876;23.474;2022-10-18T08:51:32;2.08;;;1.88;;
19388;SDS011;9830;41.876;23.474;2022-10-18T08:54:10;1.77;;;1.65;;
19388;SDS011;9830;41.876;23.474;2022-10-18T08:56:39;1.95;;;1.80;;
19388;SDS011;9830;41.876;23.474;2022-10-18T08:59:11;3.80;;;1.88;;
19388;SDS011;9830;41.876;23.474;2022-10-18T09:01:44;1.60;;;1.50;;
19388;SDS011;9830;41.876;23.474;2022-10-18T09:20:26;3.80;;;1.67;;
19388;SDS011;9830;41.876;23.474;2022-10-18T09:23:00;9.02;;;2.08;;
19388;SDS011;9830;41.876;23.474;2022-10-18T09:25:48;0.63;;;0.63;;
19388;SDS011;9830;41.876;23.474;2022-10-18T09:31:15;0.32;;;0.32;;
19388;SDS011;9830;41.876;23.474;2022-10-18T09:33:53;0.47;;;0.47;;
19388;SDS011;9830;41.876;23.474;2022-10-18T09:36:26;0.57;;;0.57;;
19388;SDS011;9830;41.876;23.474;2022-10-18T09:39:01;0.80;;;0.77;;
19388;SDS011;9830;41.876;23.474;2022-10-18T09:47:13;1.85;;;1.05;;
19388;SDS011;9830;41.876;23.474;2022-10-18T09:49:44;1.50;;;0.90;;
19388;SDS011;9830;41.876;23.474;2022-10-18T09:52:15;1.02;;;1.00;;
19388;SDS011;9830;41.876;23.474;2022-10-18T09:54:49;0.17;;;0.17;;
19388;SDS011;9830;41.876;23.474;2022-10-18T10:00:04;0.65;;;0.65;;
19388;SDS011;9830;41.876;23.474;2022-10-18T10:02:38;1.02;;;1.02;;
19388;SDS011;9830;41.876;23.474;2022-10-18T10:05:04;1.23;;;0.38;;
19388;SDS011;9830;41.876;23.474;2022-10-18T10:07:34;1.08;;;0.90;;
19388;SDS011;9830;41.876;23.474;2022-10-18T10:10:19;1.30;;;1.25;;
19388;SDS011;9830;41.876;23.474;2022-10-18T10:12:46;0.63;;;0.63;;
19388;SDS011;9830;41.876;23.474;2022-10-18T10:15:20;1.67;;;0.57;;
19388;SDS011;9830;41.876;23.474;2022-10-18T10:18:01;0.25;;;0.25;;
19388;SDS011;9830;41.876;23.474;2022-10-18T10:25:55;1.30;;;1.23;;
19388;SDS011;9830;41.876;23.474;2022-10-18T10:28:27;0.32;;;0.32;;
19388;SDS011;9830;41.876;23.474;2022-10-18T10:31:33;0.25;;;0.25;;
19388;SDS011;9830;41.876;23.474;2022-10-18T10:36:30;0.45;;;0.45;;
19388;SDS011;9830;41.876;23.474;2022-10-18T10:39:09;1.75;;;1.35;;
19388;SDS011;9830;41.876;23.474;2022-10-18T10:41:37;2.53;;;1.27;;
19388;SDS011;9830;41.876;23.474;2022-10-18T10:44:12;0.40;;;0.40;;
19388;SDS011;9830;41.876;23.474;2022-10-18T10:46:49;1.10;;;0.82;;
19388;SDS011;9830;41.876;23.474;2022-10-18T10:49:17;0.40;;;0.40;;
19388;SDS011;9830;41.876;23.474;2022-10-18T10:51:56;0.20;;;0.20;;
19388;SDS011;9830;41.876;23.474;2022-10-18T10:54:25;0.30;;;0.30;;
19388;SDS011;9830;41.876;23.474;2022-10-18T10:57:06;1.03;;;0.37;;
19388;SDS011;9830;41.876;23.474;2022-10-18T10:59:47;2.33;;;1.03;;
19388;SDS011;9830;41.876;23.474;2022-10-18T11:04:44;0.10;;;0.10;;
19388;SDS011;9830;41.876;23.474;2022-10-18T11:12:38;0.23;;;0.23;;
19388;SDS011;9830;41.876;23.474;2022-10-18T11:15:21;0.20;;;0.20;;
19388;SDS011;9830;41.876;23.474;2022-10-18T11:20:39;0.67;;;0.40;;
19388;SDS011;9830;41.876;23.474;2022-10-18T11:23:09;0.10;;;0.10;;
19388;SDS011;9830;41.876;23.474;2022-10-18T11:25:53;0.03;;;0.03;;
19388;SDS011;9830;41.876;23.474;2022-10-18T11:28:35;0.63;;;0.30;;
19388;SDS011;9830;41.876;23.474;2022-10-18T11:34:23;1.73;;;1.13;;
19388;SDS011;9830;41.876;23.474;2022-10-18T11:36:37;1.73;;;0.87;;
19388;SDS011;9830;41.876;23.474;2022-10-18T11:39:26;0.20;;;0.20;;
19388;SDS011;9830;41.876;23.474;2022-10-18T11:51:09;0.30;;;0.30;;
19388;SDS011;9830;41.876;23.474;2022-10-18T12:01:42;0.23;;;0.23;;
19388;SDS011;9830;41.876;23.474;2022-10-18T12:04:22;0.20;;;0.20;;
19388;SDS011;9830;41.876;23.474;2022-10-18T12:06:52;0.20;;;0.20;;
19388;SDS011;9830;41.876;23.474;2022-10-18T12:12:49;0.00;;;0.00;;
19388;SDS011;9830;41.876;23.474;2022-10-18T12:15:04;0.73;;;0.73;;
19388;SDS011;9830;41.876;23.474;2022-10-18T12:17:55;2.83;;;0.80;;
19388;SDS011;9830;41.876;23.474;2022-10-18T12:25:26;0.30;;;0.30;;
19388;SDS011;9830;41.876;23.474;2022-10-18T12:33:28;0.20;;;0.20;;
19388;SDS011;9830;41.876;23.474;2022-10-18T12:38:46;0.30;;;0.30;;
19388;SDS011;9830;41.876;23.474;2022-10-18T12:41:20;0.50;;;0.40;;
19388;SDS011;9830;41.876;23.474;2022-10-18T12:44:05;0.33;;;0.30;;
19388;SDS011;9830;41.876;23.474;2022-10-18T12:49:19;0.60;;;0.60;;
19388;SDS011;9830;41.876;23.474;2022-10-18T12:51:54;0.37;;;0.30;;
19388;SDS011;9830;41.876;23.474;2022-10-18T12:54:28;0.10;;;0.10;;
19388;SDS011;9830;41.876;23.474;2022-10-18T12:56:57;0.00;;;0.00;;
19388;SDS011;9830;41.876;23.474;2022-10-18T13:09:26;1.07;;;0.73;;
19388;SDS011;9830;41.876;23.474;2022-10-18T13:17:52;0.10;;;0.10;;
19388;SDS011;9830;41.876;23.474;2022-10-18T13:29:22;0.20;;;0.20;;
19388;SDS011;9830;41.876;23.474;2022-10-18T13:34:29;0.40;;;0.40;;
19388;SDS011;9830;41.876;23.474;2022-10-18T13:37:05;0.27;;;0.27;;
19388;SDS011;9830;41.876;23.474;2022-10-18T13:39:45;0.20;;;0.20;;
19388;SDS011;9830;41.876;23.474;2022-10-18T13:42:19;0.40;;;0.40;;
19388;SDS011;9830;41.876;23.474;2022-10-18T13:44:54;1.30;;;1.13;;
19388;SDS011;9830;41.876;23.474;2022-10-18T13:47:55;1.40;;;0.80;;
19388;SDS011;9830;41.876;23.474;2022-10-18T13:50:23;1.03;;;0.97;;
19388;SDS011;9830;41.876;23.474;2022-10-18T13:55:51;0.43;;;0.43;;
19388;SDS011;9830;41.876;23.474;2022-10-18T14:08:35;7.53;;;1.30;;
19388;SDS011;9830;41.876;23.474;2022-10-18T14:19:24;0.23;;;0.23;;
19388;SDS011;9830;41.876;23.474;2022-10-18T14:21:55;2.80;;;1.40;;
19388;SDS011;9830;41.876;23.474;2022-10-18T14:24:30;2.10;;;1.73;;
19388;SDS011;9830;41.876;23.474;2022-10-18T14:27:15;0.70;;;0.67;;
19388;SDS011;9830;41.876;23.474;2022-10-18T14:29:44;0.70;;;0.70;;
19388;SDS011;9830;41.876;23.474;2022-10-18T14:32:17;0.40;;;0.40;;
19388;SDS011;9830;41.876;23.474;2022-10-18T14:34:54;0.70;;;0.70;;
19388;SDS011;9830;41.876;23.474;2022-10-18T14:37:25;0.60;;;0.60;;
19388;SDS011;9830;41.876;23.474;2022-10-18T14:39:52;0.27;;;0.27;;
19388;SDS011;9830;41.876;23.474;2022-10-18T14:42:19;0.00;;;0.00;;
19388;SDS011;9830;41.876;23.474;2022-10-18T14:44:49;0.20;;;0.20;;
19388;SDS011;9830;41.876;23.474;2022-10-18T14:47:19;0.77;;;0.47;;
19388;SDS011;9830;41.876;23.474;2022-10-18T14:49:50;0.23;;;0.23;;
19388;SDS011;9830;41.876;23.474;2022-10-18T14:52:22;0.20;;;0.20;;
19388;SDS011;9830;41.876;23.474;2022-10-18T14:54:55;0.00;;;0.00;;
19388;SDS011;9830;41.876;23.474;2022-10-18T14:57:23;0.77;;;0.47;;
19388;SDS011;9830;41.876;23.474;2022-10-18T14:59:54;0.20;;;0.20;;
19388;SDS011;9830;41.876;23.474;2022-10-18T15:02:23;0.30;;;0.30;;
19388;SDS011;9830;41.876;23.474;2022-10-18T15:05:24;0.40;;;0.40;;
19388;SDS011;9830;41.876;23.474;2022-10-18T15:07:45;0.23;;;0.23;;
19388;SDS011;9830;41.876;23.474;2022-10-18T15:10:19;0.20;;;0.20;;
19388;SDS011;9830;41.876;23.474;2022-10-18T15:12:51;9.87;;;1.90;;
19388;SDS011;9830;41.876;23.474;2022-10-18T15:15:21;0.70;;;0.40;;
19388;SDS011;9830;41.876;23.474;2022-10-18T15:17:51;0.70;;;0.70;;
19388;SDS011;9830;41.876;23.474;2022-10-18T15:22:52;0.33;;;0.33;;
19388;SDS011;9830;41.876;23.474;2022-10-18T15:27:50;0.53;;;0.53;;
19388;SDS011;9830;41.876;23.474;2022-10-18T15:30:40;0.50;;;0.50;;
19388;SDS011;9830;41.876;23.474;2022-10-18T15:33:07;0.93;;;0.67;;
19388;SDS011;9830;41.876;23.474;2022-10-18T15:35:34;0.20;;;0.20;;
19388;SDS011;9830;41.876;23.474;2022-10-18T15:38:47;0.93;;;0.93;;
19388;SDS011;9830;41.876;23.474;2022-10-18T15:40:52;1.17;;;1.03;;
19388;SDS011;9830;41.876;23.474;2022-10-18T15:45:48;0.17;;;0.17;;
19388;SDS011;9830;41.876;23.474;2022-10-18T15:58:43;0.40;;;0.40;;
19388;SDS011;9830;41.876;23.474;2022-10-18T16:01:20;0.37;;;0.37;;
19388;SDS011;9830;41.876;23.474;2022-10-18T16:03:49;5.73;;;1.33;;
19388;SDS011;9830;41.876;23.474;2022-10-18T16:06:16;0.80;;;0.80;;
19388;SDS011;9830;41.876;23.474;2022-10-18T16:08:46;0.20;;;0.20;;
19388;SDS011;9830;41.876;23.474;2022-10-18T16:11:15;4.07;;;1.30;;
19388;SDS011;9830;41.876;23.474;2022-10-18T16:13:47;0.50;;;0.40;;
19388;SDS011;9830;41.876;23.474;2022-10-18T16:16:23;0.70;;;0.70;;
19388;SDS011;9830;41.876;23.474;2022-10-18T16:18:50;1.30;;;1.13;;
19388;SDS011;9830;41.876;23.474;2022-10-18T16:21:24;1.73;;;0.83;;
19388;SDS011;9830;41.876;23.474;2022-10-18T16:24:00;0.70;;;0.23;;
19388;SDS011;9830;41.876;23.474;2022-10-18T16:26:27;0.90;;;0.90;;
19388;SDS011;9830;41.876;23.474;2022-10-18T16:28:53;12.20;;;1.13;;
19388;SDS011;9830;41.876;23.474;2022-10-18T16:31:21;1.40;;;0.40;;
19388;SDS011;9830;41.876;23.474;2022-10-18T16:33:51;1.33;;;1.20;;
19388;SDS011;9830;41.876;23.474;2022-10-18T16:36:19;2.83;;;1.00;;
19388;SDS011;9830;41.876;23.474;2022-10-18T16:38:47;2.97;;;1.27;;
19388;SDS011;9830;41.876;23.474;2022-10-18T16:41:13;0.67;;;0.67;;
19388;SDS011;9830;41.876;23.474;2022-10-18T16:43:40;1.07;;;1.07;;
19388;SDS011;9830;41.876;23.474;2022-10-18T16:46:09;1.73;;;0.83;;
19388;SDS011;9830;41.876;23.474;2022-10-18T16:48:40;0.53;;;0.53;;
19388;SDS011;9830;41.876;23.474;2022-10-18T16:51:07;0.20;;;0.20;;
19388;SDS011;9830;41.876;23.474;2022-10-18T16:53:33;1.40;;;1.03;;
19388;SDS011;9830;41.876;23.474;2022-10-18T16:55:59;0.20;;;0.20;;
19388;SDS011;9830;41.876;23.474;2022-10-18T16:58:27;2.23;;;1.63;;
19388;SDS011;9830;41.876;23.474;2022-10-18T17:00:53;0.63;;;0.63;;
19388;SDS011;9830;41.876;23.474;2022-10-18T17:03:20;30.93;;;3.67;;
19388;SDS011;9830;41.876;23.474;2022-10-18T17:05:46;2.03;;;1.93;;
19388;SDS011;9830;41.876;23.474;2022-10-18T17:08:19;0.50;;;0.50;;
19388;SDS011;9830;41.876;23.474;2022-10-18T17:10:48;3.30;;;1.00;;
19388;SDS011;9830;41.876;23.474;2022-10-18T17:13:17;1.07;;;1.07;;
19388;SDS011;9830;41.876;23.474;2022-10-18T17:15:43;0.30;;;0.30;;
19388;SDS011;9830;41.876;23.474;2022-10-18T17:18:13;3.00;;;0.70;;
19388;SDS011;9830;41.876;23.474;2022-10-18T17:20:40;0.70;;;0.70;;
19388;SDS011;9830;41.876;23.474;2022-10-18T17:23:07;0.27;;;0.27;;
19388;SDS011;9830;41.876;23.474;2022-10-18T17:25:34;0.10;;;0.10;;
19388;SDS011;9830;41.876;23.474;2022-10-18T17:28:00;0.07;;;0.07;;
19388;SDS011;9830;41.876;23.474;2022-10-18T17:30:26;12.37;;;1.33;;
19388;SDS011;9830;41.876;23.474;2022-10-18T17:32:52;0.40;;;0.30;;
19388;SDS011;9830;41.876;23.474;2022-10-18T17:35:18;0.10;;;0.10;;
19388;SDS011;9830;41.876;23.474;2022-10-18T17:37:46;2.27;;;1.13;;
19388;SDS011;9830;41.876;23.474;2022-10-18T17:40:13;0.33;;;0.27;;
19388;SDS011;9830;41.876;23.474;2022-10-18T17:42:39;0.50;;;0.43;;
19388;SDS011;9830;41.876;23.474;2022-10-18T17:45:04;0.53;;;0.50;;
19388;SDS011;9830;41.876;23.474;2022-10-18T17:47:30;0.43;;;0.30;;
19388;SDS011;9830;41.876;23.474;2022-10-18T17:49:56;0.10;;;0.10;;
19388;SDS011;9830;41.876;23.474;2022-10-18T17:52:22;0.40;;;0.40;;
19388;SDS011;9830;41.876;23.474;2022-10-18T17:54:48;2.40;;;1.00;;
19388;SDS011;9830;41.876;23.474;2022-10-18T17:57:13;8.53;;;1.27;;
19388;SDS011;9830;41.876;23.474;2022-10-18T17:59:40;3.20;;;1.20;;
19388;SDS011;9830;41.876;23.474;2022-10-18T18:02:06;0.20;;;0.20;;
19388;SDS011;9830;41.876;23.474;2022-10-18T18:04:31;0.00;;;0.00;;